Time;durP1;ratioP1;P1;durP2;ratioP2;P2;SDS_P1;SDS_P2;PMS_P1;PMS_P2;Temp;Humidity;BMP_temperature;BMP_pressure;BME280_temperature;BME280_humidity;BME280_pressure;Samples;Min_cycle;Max_cycle;Signal;HPM_P1;HPM_P2
2021/04/03 00:00:10;;;;;;;3.80;2.90;;;9.20;91.30;;;;;;5116119;28;20182;-67
2021/04/03 00:02:36;;;;;;;2.05;1.83;;;9.20;91.30;;;;;;5117438;28;20503;-67
2021/04/03 00:05:03;;;;;;;2.70;1.47;;;9.30;91.30;;;;;;5117363;28;20207;-67
2021/04/03 00:07:29;;;;;;;1.55;1.45;;;9.10;91.60;;;;;;5117170;28;20186;-67
2021/04/03 00:09:55;;;;;;;2.60;2.17;;;9.10;91.80;;;;;;5115859;28;20266;-66
2021/04/03 00:12:20;;;;;;;0.70;0.70;;;9.10;91.90;;;;;;5115892;28;20255;-67
2021/04/03 00:14:47;;;;;;;2.03;1.47;;;9.10;91.90;;;;;;5117003;28;20187;-68
2021/04/03 00:17:13;;;;;;;2.28;1.55;;;9.10;91.90;;;;;;5117483;28;20187;-67
2021/04/03 00:19:38;;;;;;;3.37;2.13;;;9.10;91.60;;;;;;5115625;28;20271;-66
2021/04/03 00:22:05;;;;;;;1.50;1.40;;;9.10;91.50;;;;;;5116557;28;20183;-66
2021/04/03 00:24:31;;;;;;;2.75;1.70;;;9.10;91.90;;;;;;5098507;28;20199;-66
2021/04/03 00:26:56;;;;;;;1.97;1.20;;;9.20;91.70;;;;;;5117406;28;20172;-66
2021/04/03 00:29:22;;;;;;;2.70;1.53;;;9.20;91.60;;;;;;5116732;28;20199;-66
2021/04/03 00:31:48;;;;;;;3.67;1.80;;;9.20;91.80;;;;;;5117064;28;20179;-66
2021/04/03 00:34:13;;;;;;;1.43;1.33;;;9.20;92.30;;;;;;5116688;28;20199;-67
2021/04/03 00:36:39;;;;;;;2.10;1.90;;;9.20;92.20;;;;;;5117104;28;20199;-67
2021/04/03 00:39:05;;;;;;;1.80;1.60;;;9.20;92.50;;;;;;5098273;28;20196;-69
2021/04/03 00:41:30;;;;;;;2.10;1.40;;;9.20;92.50;;;;;;5115218;28;20190;-68
2021/04/03 00:43:56;;;;;;;3.40;1.37;;;9.30;92.70;;;;;;5116473;28;20237;-66
2021/04/03 00:46:21;;;;;;;3.13;1.63;;;9.30;92.90;;;;;;5116968;28;20251;-67
2021/04/03 00:48:48;;;;;;;3.83;1.30;;;9.30;93.10;;;;;;5116320;28;20231;-68
2021/04/03 00:51:13;;;;;;;2.95;1.92;;;9.30;93.20;;;;;;5115329;28;20184;-66
2021/04/03 00:53:39;;;;;;;1.40;1.30;;;9.30;93.50;;;;;;5116275;28;20296;-66
2021/04/03 00:56:06;;;;;;;1.63;1.27;;;9.30;93.70;;;;;;5116650;28;20176;-66
2021/04/03 00:58:32;;;;;;;2.60;2.15;;;9.30;93.90;;;;;;5097814;28;20200;-66
2021/04/03 01:00:57;;;;;;;2.90;2.33;;;9.40;94.10;;;;;;5116461;28;20175;-67
2021/04/03 01:03:24;;;;;;;1.60;1.50;;;9.40;94.10;;;;;;5097927;28;20196;-66
2021/04/03 01:05:51;;;;;;;3.45;2.10;;;9.50;94.40;;;;;;5116250;28;20434;-67
2021/04/03 01:08:16;;;;;;;2.97;1.50;;;9.50;94.40;;;;;;5116144;28;20590;-66
2021/04/03 01:10:47;;;;;;;3.17;2.80;;;9.50;94.10;;;;;;5116288;28;20215;-66
2021/04/03 01:13:31;;;;;;;2.55;1.05;;;9.60;94.00;;;;;;5097644;28;20310;-67
2021/04/03 01:16:19;;;;;;;1.88;1.55;;;9.50;94.10;;;;;;5114831;28;20182;-67
2021/04/03 01:18:57;;;;;;;1.80;1.70;;;9.50;94.30;;;;;;5097483;28;20283;-68
2021/04/03 01:21:47;;;;;;;2.38;1.95;;;9.70;94.10;;;;;;5114768;28;20186;-66
2021/04/03 01:24:23;;;;;;;3.00;1.95;;;9.70;94.40;;;;;;5115789;28;20656;-67
2021/04/03 01:27:19;;;;;;;3.08;1.42;;;9.70;94.70;;;;;;5114693;28;20176;-68
2021/04/03 01:29:50;;;;;;;2.22;2.03;;;9.70;94.50;;;;;;5115595;28;20195;-68
2021/04/03 01:32:25;;;;;;;6.45;2.63;;;9.80;95.00;;;;;;5115596;28;20686;-66
2021/04/03 01:34:54;;;;;;;3.90;2.30;;;9.70;95.30;;;;;;5097047;28;20195;-66
2021/04/03 01:37:22;;;;;;;2.38;1.98;;;9.80;95.50;;;;;;5115517;28;20254;-68
2021/04/03 01:39:51;;;;;;;5.55;3.08;;;9.80;95.50;;;;;;5115301;28;20695;-67
2021/04/03 01:42:24;;;;;;;1.90;1.70;;;9.70;95.60;;;;;;5097139;28;20194;-68
2021/04/03 01:44:59;;;;;;;3.28;1.88;;;9.80;95.80;;;;;;5115353;28;20167;-68
2021/04/03 01:47:28;;;;;;;3.92;2.05;;;9.70;96.20;;;;;;5115124;28;20261;-68
2021/04/03 01:49:56;;;;;;;2.70;1.88;;;9.80;96.40;;;;;;5115213;28;20702;-66
2021/04/03 01:52:25;;;;;;;1.80;1.50;;;9.80;96.40;;;;;;5115092;28;20619;-66
2021/04/03 01:54:55;;;;;;;2.72;1.60;;;9.80;96.50;;;;;;5115029;28;20227;-67
2021/04/03 01:57:24;;;;;;;2.78;1.75;;;9.80;96.50;;;;;;5115167;28;20637;-67
2021/04/03 01:59:51;;;;;;;2.05;1.80;;;9.80;97.10;;;;;;5115053;28;20254;-67
2021/04/03 02:02:18;;;;;;;2.00;1.67;;;9.70;97.50;;;;;;5115027;28;20178;-68
2021/04/03 02:04:45;;;;;;;1.88;1.77;;;9.70;97.60;;;;;;5114842;28;20567;-66
2021/04/03 02:07:17;;;;;;;2.42;1.20;;;9.80;97.60;;;;;;5115520;28;20171;-66
2021/04/03 02:09:46;;;;;;;2.47;2.20;;;9.70;97.40;;;;;;5096608;28;20200;-67
2021/04/03 02:12:12;;;;;;;2.15;1.75;;;9.60;97.30;;;;;;5115235;28;20624;-66
2021/04/03 02:14:39;;;;;;;4.60;2.22;;;9.40;97.60;;;;;;5114725;28;20195;-66
2021/04/03 02:17:10;;;;;;;4.10;2.28;;;9.50;97.40;;;;;;5114694;28;20171;-67
2021/04/03 02:19:37;;;;;;;1.77;1.60;;;9.40;97.50;;;;;;5114677;28;20199;-66
2021/04/03 02:22:03;;;;;;;2.35;1.73;;;9.40;97.80;;;;;;5115262;28;20183;-67
2021/04/03 02:24:30;;;;;;;4.25;2.13;;;9.40;97.60;;;;;;5114667;28;20652;-68
2021/04/03 02:26:56;;;;;;;4.10;2.35;;;9.40;97.40;;;;;;5115203;28;20175;-67
2021/04/03 02:29:22;;;;;;;5.13;2.10;;;9.40;97.40;;;;;;5114581;28;20607;-66
2021/04/03 02:31:49;;;;;;;4.95;2.35;;;9.30;97.60;;;;;;5114879;28;20530;-67
2021/04/03 02:34:14;;;;;;;2.55;2.35;;;9.30;97.80;;;;;;5114415;28;20192;-66
2021/04/03 02:36:40;;;;;;;5.77;2.00;;;9.30;98.10;;;;;;5114921;28;20172;-66
2021/04/03 02:39:06;;;;;;;2.80;2.30;;;9.30;98.40;;;;;;5114397;28;20195;-67
2021/04/03 02:41:48;;;;;;;4.40;2.80;;;9.40;98.40;;;;;;5114740;28;20183;-66
2021/04/03 02:44:19;;;;;;;2.50;1.95;;;9.30;98.10;;;;;;5114367;28;20707;-66
2021/04/03 02:47:28;;;;;;;2.55;2.30;;;9.40;98.20;;;;;;5114289;28;20175;-67
2021/04/03 02:50:04;;;;;;;4.30;2.35;;;9.40;97.80;;;;;;5011820;28;20269;-67
2021/04/03 02:52:33;;;;;;;2.67;1.65;;;9.40;97.90;;;;;;5100148;28;20233;-67
2021/04/03 02:55:02;;;;;;;3.53;3.00;;;9.30;98.00;;;;;;5114254;28;20172;-66
2021/04/03 02:57:28;;;;;;;3.05;2.38;;;9.40;98.00;;;;;;5114199;28;20180;-66
2021/04/03 02:59:57;;;;;;;3.97;2.00;;;9.40;98.00;;;;;;5114041;28;20164;-68
2021/04/03 03:02:24;;;;;;;2.85;2.55;;;9.40;98.00;;;;;;5114144;28;20179;-66
2021/04/03 03:04:52;;;;;;;2.25;1.65;;;9.50;97.90;;;;;;5114004;28;20167;-68
2021/04/03 03:07:18;;;;;;;2.20;2.10;;;9.50;97.80;;;;;;5114125;28;20180;-67
2021/04/03 03:09:49;;;;;;;4.00;3.20;;;9.50;98.10;;;;;;5113985;28;20684;-67
2021/04/03 03:12:17;;;;;;;4.40;2.50;;;9.50;98.50;;;;;;5096209;28;20703;-66
2021/04/03 03:14:44;;;;;;;7.22;3.42;;;9.50;98.60;;;;;;5113890;28;20200;-67
2021/04/03 03:17:12;;;;;;;4.38;3.05;;;9.50;98.40;;;;;;5114521;28;20625;-67
2021/04/03 03:19:39;;;;;;;7.90;3.80;;;9.50;98.20;;;;;;5113948;28;20583;-67
2021/04/03 03:22:05;;;;;;;3.20;2.78;;;9.40;98.60;;;;;;5095973;28;20211;-67
2021/04/03 03:24:33;;;;;;;3.70;2.78;;;9.30;98.60;;;;;;5113812;28;20208;-66
2021/04/03 03:27:00;;;;;;;5.03;2.58;;;9.20;98.80;;;;;;5114506;28;20519;-66
2021/04/03 03:29:28;;;;;;;3.17;2.25;;;9.20;98.80;;;;;;5113803;28;20195;-68
2021/04/03 03:31:54;;;;;;;4.82;2.33;;;9.30;98.60;;;;;;5095673;28;20272;-68
2021/04/03 03:34:20;;;;;;;4.22;2.60;;;9.30;98.50;;;;;;5113789;28;20252;-67
2021/04/03 03:36:46;;;;;;;3.75;1.92;;;9.30;98.50;;;;;;5114288;28;20259;-67
2021/04/03 03:39:12;;;;;;;5.00;2.53;;;9.30;98.70;;;;;;5112404;28;20238;-66
2021/04/03 03:41:39;;;;;;;4.78;2.53;;;9.30;98.80;;;;;;5114191;28;20229;-66
2021/04/03 03:44:06;;;;;;;2.28;1.65;;;9.30;99.40;;;;;;5095472;28;20195;-67
2021/04/03 03:46:33;;;;;;;3.28;2.33;;;9.20;99.50;;;;;;5113963;28;20188;-67
2021/04/03 03:48:59;;;;;;;7.00;3.25;;;9.20;99.50;;;;;;5113746;28;20235;-68
2021/04/03 03:51:24;;;;;;;3.43;2.37;;;9.30;99.20;;;;;;5095646;28;20179;-67
2021/04/03 03:53:50;;;;;;;4.47;2.80;;;9.30;98.80;;;;;;5112173;28;20479;-67
2021/04/03 03:56:16;;;;;;;2.90;1.80;;;9.40;98.90;;;;;;5113991;28;20657;-66
2021/04/03 03:58:45;;;;;;;3.83;2.30;;;9.40;99.10;;;;;;5116443;28;20267;-67
2021/04/03 04:01:11;;;;;;;3.08;2.72;;;9.30;99.10;;;;;;5117686;28;20656;-68
2021/04/03 04:03:37;;;;;;;3.75;2.50;;;9.30;99.50;;;;;;5117291;28;20208;-67
2021/04/03 04:06:03;;;;;;;3.70;2.23;;;9.30;99.40;;;;;;5117552;28;20637;-67
2021/04/03 04:08:29;;;;;;;6.82;2.78;;;9.20;99.10;;;;;;5117331;28;20203;-66
2021/04/03 04:10:55;;;;;;;3.73;2.27;;;9.20;99.30;;;;;;5115980;28;20175;-66
2021/04/03 04:13:21;;;;;;;1.73;1.60;;;9.20;99.20;;;;;;5117024;28;20324;-67
2021/04/03 04:15:46;;;;;;;2.97;1.90;;;9.20;99.30;;;;;;5117238;28;20444;-66
2021/04/03 04:18:12;;;;;;;7.50;3.37;;;9.30;99.30;;;;;;5116961;28;20543;-67
2021/04/03 04:20:38;;;;;;;4.47;2.37;;;9.30;99.70;;;;;;5115765;28;20176;-66
2021/04/03 04:23:03;;;;;;;3.27;2.90;;;9.30;99.50;;;;;;5098651;28;20192;-67
2021/04/03 04:25:29;;;;;;;3.50;2.27;;;9.30;99.20;;;;;;5117206;28;20520;-66
2021/04/03 04:27:55;;;;;;;3.00;2.50;;;9.20;99.30;;;;;;5116797;28;20428;-68
2021/04/03 04:30:22;;;;;;;3.20;1.90;;;9.20;99.60;;;;;;5116828;28;20443;-67
2021/04/03 04:32:47;;;;;;;3.33;2.28;;;9.20;99.50;;;;;;5116607;28;20236;-66
2021/04/03 04:35:14;;;;;;;7.03;3.40;;;9.30;99.70;;;;;;5116911;28;20171;-68
2021/04/03 04:37:41;;;;;;;3.92;2.60;;;9.30;99.70;;;;;;5098280;28;20428;-67
2021/04/03 04:40:08;;;;;;;6.85;2.50;;;9.30;99.90;;;;;;5116708;28;20184;-67
2021/04/03 04:42:34;;;;;;;6.32;4.03;;;9.20;99.90;;;;;;5116530;28;20668;-66
2021/04/03 04:44:59;;;;;;;4.77;2.83;;;9.20;99.90;;;;;;5116630;28;20175;-66
2021/04/03 04:47:25;;;;;;;3.60;2.27;;;9.30;99.90;;;;;;5116288;28;20240;-66
2021/04/03 04:49:52;;;;;;;2.80;2.20;;;9.30;99.90;;;;;;5116394;28;20163;-68
2021/04/03 04:52:18;;;;;;;4.38;3.90;;;9.30;99.90;;;;;;5116363;28;20211;-67
2021/04/03 04:54:43;;;;;;;3.80;3.17;;;9.20;99.90;;;;;;5115010;28;20295;-66
2021/04/03 04:57:09;;;;;;;6.87;4.47;;;9.20;99.90;;;;;;5116886;28;20175;-67
2021/04/03 04:59:35;;;;;;;4.27;3.13;;;9.20;99.90;;;;;;5097988;28;20235;-66
2021/04/03 05:02:00;;;;;;;10.23;4.37;;;9.30;99.90;;;;;;5114753;28;20172;-66
2021/04/03 05:04:26;;;;;;;24.87;15.67;;;9.30;99.90;;;;;;5114898;28;20945;-66
2021/04/03 05:06:52;;;;;;;25.50;16.63;;;9.30;99.90;;;;;;5116655;28;20188;-68
2021/04/03 05:09:17;;;;;;;13.63;12.30;;;9.30;99.90;;;;;;5097394;28;20196;-66
2021/04/03 05:11:43;;;;;;;8.87;7.93;;;9.30;99.90;;;;;;5116438;28;20250;-66
2021/04/03 05:14:08;;;;;;;11.20;7.53;;;9.20;99.90;;;;;;5097687;28;20196;-66
2021/04/03 05:16:34;;;;;;;5.37;3.70;;;9.30;99.90;;;;;;5116128;28;20232;-67
2021/04/03 05:19:00;;;;;;;9.35;4.60;;;9.30;99.90;;;;;;5115794;28;20688;-67
2021/04/03 05:21:25;;;;;;;6.20;4.37;;;9.20;99.90;;;;;;5114723;28;20172;-66
2021/04/03 05:23:51;;;;;;;12.20;4.37;;;9.30;99.90;;;;;;5114467;28;20668;-67
2021/04/03 05:26:17;;;;;;;7.80;4.27;;;9.30;99.90;;;;;;5116213;28;20171;-67
2021/04/03 05:28:44;;;;;;;7.60;4.30;;;9.30;99.90;;;;;;5115623;28;20207;-66
2021/04/03 05:31:10;;;;;;;7.63;5.07;;;9.40;99.90;;;;;;5115945;28;20539;-67
2021/04/03 05:33:36;;;;;;;12.70;7.60;;;9.40;99.90;;;;;;5097168;28;20226;-67
2021/04/03 05:36:01;;;;;;;14.40;7.70;;;9.50;99.90;;;;;;5115797;28;20431;-66
2021/04/03 05:38:27;;;;;;;22.33;11.20;;;9.50;99.90;;;;;;5115439;28;20216;-67
2021/04/03 05:40:53;;;;;;;10.30;7.10;;;9.60;99.90;;;;;;5115631;28;20175;-68
2021/04/03 05:43:19;;;;;;;13.15;7.55;;;9.60;99.90;;;;;;5115351;28;20206;-66
2021/04/03 05:45:48;;;;;;;15.07;8.82;;;9.60;99.90;;;;;;5096949;28;20172;-68
2021/04/03 05:48:14;;;;;;;8.50;5.32;;;9.70;99.90;;;;;;5114935;28;20566;-66
2021/04/03 05:50:41;;;;;;;18.63;6.30;;;9.70;99.90;;;;;;5115376;28;20179;-66
2021/04/03 05:53:06;;;;;;;7.13;4.28;;;9.70;99.90;;;;;;5115076;28;20242;-66
2021/04/03 05:55:32;;;;;;;8.90;5.30;;;9.60;99.90;;;;;;5115214;28;20204;-67
2021/04/03 05:57:57;;;;;;;7.13;6.10;;;9.70;99.90;;;;;;5114986;28;20599;-66
2021/04/03 06:00:23;;;;;;;6.30;4.70;;;9.80;99.90;;;;;;5115219;28;20179;-67
2021/04/03 06:02:50;;;;;;;9.67;5.40;;;9.80;99.90;;;;;;5114941;28;20203;-66
2021/04/03 06:05:16;;;;;;;12.30;8.13;;;9.80;99.90;;;;;;5115105;28;20970;-67
2021/04/03 06:07:41;;;;;;;8.27;6.43;;;9.80;99.90;;;;;;5114845;28;20179;-66
2021/04/03 06:10:09;;;;;;;9.50;4.90;;;9.70;99.90;;;;;;5114840;28;20164;-67
2021/04/03 06:12:44;;;;;;;11.57;5.97;;;9.80;99.90;;;;;;5114737;28;20203;-66
2021/04/03 06:15:15;;;;;;;10.30;4.82;;;9.80;99.90;;;;;;5114930;28;20183;-66
2021/04/03 06:17:43;;;;;;;8.45;5.20;;;9.90;99.90;;;;;;5114689;28;20171;-66
2021/04/03 06:20:09;;;;;;;11.10;6.30;;;9.90;99.90;;;;;;5114029;28;20553;-66
2021/04/03 06:22:46;;;;;;;9.63;5.30;;;9.90;99.90;;;;;;5096297;28;20182;-66
2021/04/03 06:25:12;;;;;;;8.52;5.05;;;9.90;99.90;;;;;;5096354;28;20416;-68
2021/04/03 06:27:38;;;;;;;9.68;6.80;;;10.00;99.90;;;;;;5114493;28;20225;-66
2021/04/03 06:30:15;;;;;;;7.80;5.13;;;10.00;99.90;;;;;;5114597;28;20171;-67
2021/04/03 06:32:44;;;;;;;8.00;5.35;;;10.00;99.90;;;;;;5113111;28;20642;-68
2021/04/03 06:35:10;;;;;;;8.98;5.72;;;9.90;99.90;;;;;;5114539;28;20616;-68
2021/04/03 06:37:37;;;;;;;7.50;5.10;;;9.90;99.90;;;;;;5114385;28;20217;-66
2021/04/03 06:40:04;;;;;;;11.52;5.82;;;9.90;99.90;;;;;;5114472;28;20250;-68
2021/04/03 06:42:46;;;;;;;10.10;5.45;;;9.90;99.90;;;;;;5114379;28;20175;-66
2021/04/03 06:45:19;;;;;;;11.43;5.60;;;9.90;99.90;;;;;;5114662;28;20171;-68
2021/04/03 06:47:49;;;;;;;8.38;5.75;;;10.00;99.90;;;;;;5113997;28;20727;-68
2021/04/03 06:50:16;;;;;;;8.07;4.03;;;9.90;99.90;;;;;;5114400;28;20174;-68
2021/04/03 06:52:42;;;;;;;13.88;6.22;;;9.90;99.90;;;;;;5114105;28;20215;-67
2021/04/03 06:55:11;;;;;;;9.23;6.80;;;9.90;99.90;;;;;;5114325;28;20172;-66
2021/04/03 06:57:40;;;;;;;8.30;5.47;;;9.90;99.90;;;;;;5114077;28;20220;-66
2021/04/03 07:00:06;;;;;;;11.32;6.82;;;10.00;99.90;;;;;;5114330;28;20264;-67
2021/04/03 07:02:40;;;;;;;12.75;7.13;;;10.10;99.90;;;;;;5114003;28;20182;-66
2021/04/03 07:05:08;;;;;;;10.38;6.25;;;10.10;99.90;;;;;;5114244;28;20156;-68
2021/04/03 07:07:35;;;;;;;12.52;5.97;;;10.00;99.90;;;;;;5095798;28;20180;-67
2021/04/03 07:10:01;;;;;;;8.38;5.93;;;10.00;99.90;;;;;;5114134;28;20172;-67
2021/04/03 07:12:28;;;;;;;9.90;6.10;;;10.10;99.90;;;;;;5113918;28;20214;-66
2021/04/03 07:14:56;;;;;;;16.65;8.05;;;10.20;99.90;;;;;;5113933;28;20172;-67
2021/04/03 07:17:24;;;;;;;9.63;6.72;;;10.10;99.90;;;;;;5113968;28;20175;-66
2021/04/03 07:19:52;;;;;;;10.80;5.82;;;10.20;99.90;;;;;;5113971;28;20595;-67
2021/04/03 07:22:18;;;;;;;14.73;6.45;;;10.30;99.90;;;;;;5113963;28;20190;-68
2021/04/03 07:24:44;;;;;;;15.00;8.38;;;10.40;99.90;;;;;;5113836;28;20195;-68
2021/04/03 07:27:10;;;;;;;12.73;6.50;;;10.30;99.90;;;;;;5114444;28;20175;-66
2021/04/03 07:29:48;;;;;;;7.40;5.07;;;10.40;99.90;;;;;;5112531;28;20257;-67
2021/04/03 07:32:34;;;;;;;20.95;8.88;;;10.50;99.90;;;;;;5098023;28;20239;-68
2021/04/03 07:35:13;;;;;;;12.35;8.05;;;10.40;99.90;;;;;;5117997;28;20657;-66
2021/04/03 07:37:38;;;;;;;9.63;6.68;;;10.70;99.90;;;;;;5099560;28;20224;-67
2021/04/03 07:40:05;;;;;;;13.20;6.20;;;10.90;99.90;;;;;;5117857;28;20168;-67
2021/04/03 07:42:38;;;;;;;13.00;6.35;;;11.10;99.90;;;;;;5117644;28;20523;-67
2021/04/03 07:45:06;;;;;;;11.80;7.03;;;11.00;99.90;;;;;;5117745;28;20577;-66
2021/04/03 07:47:47;;;;;;;13.30;6.55;;;10.90;99.90;;;;;;5117492;28;20223;-67
2021/04/03 07:50:49;;;;;;;13.65;6.80;;;10.80;99.90;;;;;;5117718;28;20178;-66
2021/04/03 07:53:36;;;;;;;13.27;8.05;;;10.90;99.90;;;;;;5117665;28;20580;-67
2021/04/03 07:56:02;;;;;;;9.68;6.30;;;10.80;99.90;;;;;;5117831;28;20689;-66
2021/04/03 07:58:33;;;;;;;10.98;6.28;;;10.80;99.90;;;;;;5117566;28;20233;-67
2021/04/03 08:01:04;;;;;;;9.98;6.18;;;10.80;99.90;;;;;;5099332;28;20183;-67
2021/04/03 08:03:31;;;;;;;13.02;5.80;;;11.00;99.90;;;;;;5117451;28;20270;-69
2021/04/03 08:06:00;;;;;;;11.88;7.47;;;11.10;99.90;;;;;;5117560;28;20168;-68
2021/04/03 08:08:27;;;;;;;12.32;6.03;;;11.10;99.90;;;;;;5117228;28;20196;-67
2021/04/03 08:11:11;;;;;;;11.23;6.35;;;11.20;99.90;;;;;;5117390;28;20176;-68
2021/04/03 08:13:49;;;;;;;11.18;6.43;;;11.20;99.90;;;;;;5117061;28;20212;-67
2021/04/03 08:16:16;;;;;;;9.52;6.10;;;11.40;99.90;;;;;;5117054;28;20530;-68
2021/04/03 08:18:47;;;;;;;10.50;5.43;;;11.70;99.90;;;;;;5116999;28;20196;-67
2021/04/03 08:21:13;;;;;;;13.18;6.53;;;11.70;99.90;;;;;;5116923;28;20644;-66
2021/04/03 08:23:47;;;;;;;13.25;7.70;;;11.80;99.90;;;;;;5116915;28;20199;-66
2021/04/03 08:26:13;;;;;;;10.75;7.03;;;11.80;99.90;;;;;;5098798;28;20667;-69
2021/04/03 08:28:39;;;;;;;12.60;7.03;;;12.00;99.90;;;;;;5116732;28;20239;-67
2021/04/03 08:31:16;;;;;;;9.80;6.10;;;12.10;99.90;;;;;;5115689;28;20510;-66
2021/04/03 08:33:42;;;;;;;10.25;6.05;;;12.20;99.50;;;;;;5116690;28;20275;-67
2021/04/03 08:36:24;;;;;;;10.93;6.80;;;12.20;99.30;;;;;;5117112;28;20176;-66
2021/04/03 08:38:51;;;;;;;9.38;5.75;;;12.20;99.70;;;;;;5116654;28;20196;-67
2021/04/03 08:41:19;;;;;;;8.60;5.80;;;12.30;99.40;;;;;;5117034;28;20175;-67
2021/04/03 08:43:45;;;;;;;10.47;5.17;;;12.40;99.10;;;;;;5115738;28;20424;-69
2021/04/03 08:46:14;;;;;;;10.45;6.60;;;12.30;98.90;;;;;;5098332;28;20420;-67
2021/04/03 08:48:45;;;;;;;9.88;6.30;;;12.30;98.60;;;;;;5116363;28;20239;-67
2021/04/03 08:51:12;;;;;;;12.53;5.23;;;12.40;98.40;;;;;;5116917;28;20614;-68
2021/04/03 08:53:38;;;;;;;11.47;7.40;;;12.50;98.10;;;;;;5116221;28;20502;-67
2021/04/03 08:56:04;;;;;;;12.27;6.80;;;12.40;98.00;;;;;;5098159;28;20526;-67
2021/04/03 08:58:30;;;;;;;12.30;6.77;;;12.30;98.00;;;;;;5116346;28;20503;-66
2021/04/03 09:00:56;;;;;;;13.07;7.33;;;12.30;97.80;;;;;;5116500;28;20404;-66
2021/04/03 09:03:22;;;;;;;12.73;7.87;;;12.40;98.00;;;;;;5116193;28;20428;-68
2021/04/03 09:05:49;;;;;;;14.33;6.63;;;12.30;98.60;;;;;;5097950;28;20229;-67
2021/04/03 09:08:22;;;;;;;9.10;6.03;;;12.50;98.00;;;;;;5116094;28;20431;-68
2021/04/03 09:11:06;;;;;;;14.43;7.07;;;12.70;98.50;;;;;;5116239;28;20422;-67
2021/04/03 09:13:36;;;;;;;13.57;7.40;;;13.10;98.00;;;;;;5115880;28;20475;-67
2021/04/03 09:16:13;;;;;;;12.33;6.90;;;13.50;97.80;;;;;;5116352;28;20515;-68
2021/04/03 09:18:43;;;;;;;10.80;6.00;;;14.20;96.40;;;;;;5115860;28;20846;-68
2021/04/03 09:21:22;;;;;;;7.70;4.67;;;14.20;95.60;;;;;;5097691;28;20921;-67
2021/04/03 09:23:52;;;;;;;12.30;6.43;;;14.30;95.30;;;;;;5115793;28;20789;-67
2021/04/03 09:26:39;;;;;;;13.40;7.00;;;14.50;94.80;;;;;;5116130;28;20448;-67
2021/04/03 09:29:10;;;;;;;8.20;5.77;;;14.70;94.70;;;;;;5115784;28;20499;-68
2021/04/03 09:31:44;;;;;;;9.20;5.60;;;14.70;93.20;;;;;;5097534;28;20519;-68
2021/04/03 09:34:11;;;;;;;10.60;4.93;;;14.80;93.00;;;;;;5115504;28;20498;-67
2021/04/03 09:36:45;;;;;;;10.00;5.40;;;15.00;93.70;;;;;;5115969;28;20411;-67
2021/04/03 09:39:15;;;;;;;8.00;4.67;;;15.20;91.80;;;;;;5115296;28;20489;-67
2021/04/03 09:41:54;;;;;;;5.73;3.90;;;15.40;90.40;;;;;;5115939;28;20407;-67
2021/04/03 09:44:20;;;;;;;8.03;4.50;;;15.70;91.10;;;;;;5115419;28;20481;-68
2021/04/03 09:46:48;;;;;;;7.47;4.73;;;16.10;89.70;;;;;;5115861;28;20906;-68
2021/04/03 09:49:14;;;;;;;7.80;4.67;;;16.00;88.60;;;;;;5097055;28;20697;-68
2021/04/03 09:51:40;;;;;;;6.70;4.50;;;16.10;87.00;;;;;;5115569;28;20408;-68
2021/04/03 09:54:06;;;;;;;7.23;4.60;;;16.20;87.50;;;;;;5114824;28;20831;-68
2021/04/03 09:56:32;;;;;;;7.83;4.90;;;16.40;85.60;;;;;;5114819;28;20181;-69
2021/04/03 09:58:59;;;;;;;8.53;5.30;;;16.60;84.40;;;;;;5096859;28;20449;-67
2021/04/03 10:01:28;;;;;;;8.90;5.90;;;16.80;84.00;;;;;;5115427;28;21001;-68
2021/04/03 10:03:56;;;;;;;7.93;5.27;;;17.00;82.70;;;;;;5114935;28;20425;-69
2021/04/03 10:06:22;;;;;;;7.93;4.17;;;17.10;81.80;;;;;;5096849;28;20428;-68
2021/04/03 10:08:47;;;;;;;8.93;4.70;;;17.10;81.30;;;;;;5096644;28;20486;-67
2021/04/03 10:11:14;;;;;;;6.30;4.53;;;17.40;79.30;;;;;;5115174;28;20425;-70
2021/04/03 10:13:40;;;;;;;7.17;5.53;;;17.30;77.70;;;;;;5114665;28;20221;-67
2021/04/03 10:16:06;;;;;;;10.00;6.43;;;17.50;80.00;;;;;;5115123;28;20413;-69
2021/04/03 10:18:31;;;;;;;6.87;4.73;;;17.10;77.70;;;;;;5113473;28;20223;-68
2021/04/03 10:20:57;;;;;;;8.30;4.90;;;16.80;77.60;;;;;;5115062;28;20630;-67
2021/04/03 10:23:23;;;;;;;7.27;4.30;;;16.80;77.80;;;;;;5114668;28;20197;-67
2021/04/03 10:25:49;;;;;;;6.37;4.50;;;16.70;77.70;;;;;;5113353;28;20213;-67
2021/04/03 10:28:15;;;;;;;7.90;5.17;;;16.50;77.00;;;;;;5114601;28;20199;-67
2021/04/03 10:30:40;;;;;;;5.90;4.30;;;16.70;77.20;;;;;;5113342;28;20768;-67
2021/04/03 10:33:06;;;;;;;8.43;4.57;;;16.90;76.50;;;;;;5114375;28;20697;-69
2021/04/03 10:35:32;;;;;;;6.40;3.80;;;17.20;76.50;;;;;;5114613;28;20180;-67
2021/04/03 10:37:58;;;;;;;5.90;4.00;;;17.30;75.40;;;;;;5114450;28;20660;-69
2021/04/03 10:40:23;;;;;;;7.43;4.60;;;17.10;74.60;;;;;;5114518;28;20164;-68
2021/04/03 10:42:49;;;;;;;7.73;5.20;;;16.90;74.80;;;;;;5114314;28;20292;-69
2021/04/03 10:45:14;;;;;;;9.17;4.43;;;17.10;77.60;;;;;;5114432;28;20175;-68
2021/04/03 10:47:40;;;;;;;10.53;5.80;;;17.10;74.50;;;;;;5114081;28;20231;-67
2021/04/03 10:50:06;;;;;;;5.73;4.50;;;17.30;74.40;;;;;;5114330;28;20196;-68
2021/04/03 10:52:32;;;;;;;9.40;4.77;;;17.30;73.40;;;;;;5114141;28;20311;-68
2021/04/03 10:54:57;;;;;;;6.30;4.30;;;17.50;74.40;;;;;;5114241;28;20944;-68
2021/04/03 10:57:23;;;;;;;6.93;4.80;;;17.40;70.90;;;;;;5114225;28;20173;-69
2021/04/03 10:59:50;;;;;;;8.90;5.40;;;17.20;72.30;;;;;;5096118;28;20197;-69
2021/04/03 11:02:16;;;;;;;9.43;5.57;;;17.20;73.20;;;;;;5114132;28;20219;-68
2021/04/03 11:04:41;;;;;;;6.93;4.60;;;17.20;72.80;;;;;;5114035;28;20502;-68
2021/04/03 11:07:07;;;;;;;8.00;5.00;;;17.10;72.00;;;;;;5114224;28;20908;-68
2021/04/03 11:09:33;;;;;;;6.37;4.30;;;16.70;72.60;;;;;;5095860;28;20560;-68
2021/04/03 11:11:58;;;;;;;9.90;6.23;;;16.70;73.20;;;;;;5114494;28;20174;-67
2021/04/03 11:14:24;;;;;;;8.53;5.50;;;16.50;73.80;;;;;;5114020;28;20205;-67
2021/04/03 11:16:49;;;;;;;8.60;5.50;;;16.70;73.60;;;;;;5114386;28;20222;-68
2021/04/03 11:19:15;;;;;;;5.60;4.10;;;16.50;72.80;;;;;;5112705;28;20208;-67
2021/04/03 11:21:41;;;;;;;8.27;5.90;;;17.00;74.80;;;;;;5114480;28;20264;-69
2021/04/03 11:24:07;;;;;;;7.43;4.90;;;17.50;73.30;;;;;;5113947;28;20199;-67
2021/04/03 11:26:32;;;;;;;6.90;4.87;;;17.70;72.40;;;;;;5114287;28;20641;-68
2021/04/03 11:28:58;;;;;;;8.10;5.30;;;17.60;70.80;;;;;;5113889;28;20430;-67
2021/04/03 11:31:23;;;;;;;7.60;4.60;;;17.60;71.10;;;;;;5114277;28;20180;-68
2021/04/03 11:33:53;;;;;;;8.87;5.30;;;17.50;69.60;;;;;;5113728;28;20570;-67
2021/04/03 11:36:19;;;;;;;6.83;5.40;;;17.30;71.00;;;;;;5112760;28;20250;-69
2021/04/03 11:38:45;;;;;;;8.97;5.10;;;17.30;71.50;;;;;;5113686;28;20414;-68
2021/04/03 11:41:10;;;;;;;7.53;4.80;;;17.60;71.40;;;;;;5114032;28;20219;-68
2021/04/03 11:43:36;;;;;;;7.20;5.50;;;17.60;71.10;;;;;;5113666;28;20671;-67
2021/04/03 11:46:01;;;;;;;6.97;4.80;;;17.70;71.00;;;;;;5113988;28;20209;-67
2021/04/03 11:48:27;;;;;;;6.57;5.20;;;18.00;70.20;;;;;;5113623;28;20696;-69
2021/04/03 11:50:53;;;;;;;8.03;4.93;;;18.30;70.60;;;;;;5095387;28;20744;-67
2021/04/03 11:53:19;;;;;;;8.00;6.60;;;18.30;68.60;;;;;;5113591;28;20483;-67
2021/04/03 11:55:44;;;;;;;9.53;5.50;;;17.50;68.20;;;;;;5113915;28;20235;-67
2021/04/03 11:58:10;;;;;;;8.70;4.60;;;17.40;70.50;;;;;;5113644;28;20292;-67
2021/04/03 12:00:35;;;;;;;6.73;5.20;;;17.50;70.20;;;;;;5113837;28;20570;-66
2021/04/03 12:03:02;;;;;;;10.13;6.80;;;17.10;69.50;;;;;;5113559;28;20287;-66
2021/04/03 12:05:28;;;;;;;8.33;5.37;;;16.90;69.70;;;;;;5095353;28;20623;-66
2021/04/03 12:07:55;;;;;;;6.70;4.87;;;16.20;69.80;;;;;;5113400;28;20431;-67
2021/04/03 12:10:21;;;;;;;7.57;5.17;;;16.30;71.30;;;;;;5113660;28;20164;-67
2021/04/03 12:12:46;;;;;;;7.43;4.97;;;16.60;71.70;;;;;;5113296;28;20483;-68
2021/04/03 12:15:17;;;;;;;8.93;4.97;;;16.90;71.60;;;;;;5113425;28;20222;-66
2021/04/03 12:17:43;;;;;;;7.20;5.00;;;16.70;70.00;;;;;;5095053;28;20648;-67
2021/04/03 12:20:13;;;;;;;8.23;4.73;;;16.80;70.20;;;;;;5098445;28;20423;-67
2021/04/03 12:22:39;;;;;;;6.00;4.70;;;16.60;70.50;;;;;;5117081;28;20393;-68
2021/04/03 12:25:05;;;;;;;9.23;5.63;;;16.60;70.00;;;;;;5117009;28;20406;-67
2021/04/03 12:27:31;;;;;;;11.23;5.60;;;16.40;70.50;;;;;;5098569;28;20937;-65
2021/04/03 12:29:57;;;;;;;11.13;6.63;;;16.50;70.50;;;;;;5116882;28;20472;-66
2021/04/03 12:32:22;;;;;;;10.33;6.27;;;16.30;70.90;;;;;;5116853;28;21044;-66
2021/04/03 12:34:48;;;;;;;10.00;6.00;;;16.00;71.70;;;;;;5116601;28;20615;-67
2021/04/03 12:37:16;;;;;;;10.80;6.53;;;15.90;71.70;;;;;;5116678;28;20176;-67
2021/04/03 12:39:42;;;;;;;9.83;5.93;;;15.90;72.00;;;;;;5116761;28;20665;-68
2021/04/03 12:42:08;;;;;;;11.27;6.27;;;15.90;72.10;;;;;;5117309;28;20408;-66
2021/04/03 12:44:34;;;;;;;11.13;7.17;;;15.80;72.10;;;;;;5116544;28;20649;-67
2021/04/03 12:46:59;;;;;;;9.40;5.73;;;15.80;72.00;;;;;;5098292;28;20469;-68
2021/04/03 12:49:25;;;;;;;8.40;6.37;;;15.70;72.60;;;;;;5115162;28;20444;-68
2021/04/03 12:51:50;;;;;;;9.87;6.20;;;15.70;73.30;;;;;;5116835;28;20187;-66
2021/04/03 12:54:16;;;;;;;8.57;5.37;;;15.20;74.50;;;;;;5116288;28;20306;-68